createdAt,value
2018-07-15T00:02:25.933Z,4.47
2018-07-15T00:04:54.511Z,6.30
2018-07-15T00:07:23.044Z,5.87
2018-07-15T00:09:51.659Z,5.00
2018-07-15T00:12:20.226Z,4.80
2018-07-15T00:14:48.826Z,5.03
2018-07-15T00:17:17.369Z,5.80
2018-07-15T00:19:45.706Z,5.43
2018-07-15T00:22:14.252Z,7.47
2018-07-15T00:24:42.806Z,6.57
2018-07-15T00:27:11.106Z,7.33
2018-07-15T00:29:39.669Z,5.60
2018-07-15T00:32:08.264Z,5.37
2018-07-15T00:34:36.827Z,5.50
2018-07-15T00:37:05.129Z,5.83
2018-07-15T00:39:33.720Z,5.97
2018-07-15T00:42:02.364Z,5.20
2018-07-15T00:44:30.984Z,6.83
2018-07-15T00:46:59.583Z,6.20
2018-07-15T00:49:29.210Z,6.03
2018-07-15T00:51:58.336Z,5.40
2018-07-15T00:54:27.328Z,5.73
2018-07-15T00:56:55.867Z,5.57
2018-07-15T00:59:24.466Z,7.03
2018-07-15T01:01:52.984Z,5.70
2018-07-15T01:04:21.602Z,5.50
2018-07-15T01:06:50.146Z,5.90
2018-07-15T01:09:18.764Z,5.87
2018-07-15T01:11:47.268Z,5.27
2018-07-15T01:14:15.919Z,5.40
2018-07-15T01:16:44.451Z,5.87
2018-07-15T01:19:13.035Z,5.70
2018-07-15T01:21:41.552Z,5.17
2018-07-15T01:24:09.825Z,5.47
2018-07-15T01:26:38.163Z,6.00
2018-07-15T01:29:06.758Z,6.03
2018-07-15T01:31:35.285Z,6.17
2018-07-15T01:34:03.834Z,6.10
2018-07-15T01:36:32.430Z,5.90
2018-07-15T01:39:00.671Z,6.37
2018-07-15T01:41:30.211Z,7.00
2018-07-15T01:43:59.868Z,5.87
2018-07-15T01:46:29.121Z,5.70
2018-07-15T01:48:58.954Z,5.13
2018-07-15T01:51:28.835Z,5.67
2018-07-15T01:53:57.444Z,6.30
2018-07-15T01:56:25.734Z,5.90
2018-07-15T01:58:54.282Z,5.83
2018-07-15T02:01:22.873Z,5.90
2018-07-15T02:03:51.418Z,5.20
2018-07-15T02:06:19.955Z,6.00
2018-07-15T02:08:48.527Z,5.47
2018-07-15T02:11:16.802Z,6.03
2018-07-15T02:13:45.109Z,5.60
2018-07-15T02:16:13.694Z,5.00
2018-07-15T02:18:42.269Z,4.83
2018-07-15T02:21:10.847Z,6.27
2018-07-15T02:23:39.379Z,5.27
2018-07-15T02:26:07.950Z,5.17
2018-07-15T02:28:36.497Z,5.37
2018-07-15T02:31:05.190Z,5.40
2018-07-15T02:33:33.708Z,4.83
2018-07-15T02:36:02.303Z,5.03
2018-07-15T02:38:30.912Z,4.67
2018-07-15T02:41:00.571Z,3.80
2018-07-15T02:43:30.213Z,4.67
2018-07-15T02:45:59.995Z,4.73
2018-07-15T02:48:29.597Z,5.00
2018-07-15T02:50:59.395Z,4.83
2018-07-15T02:53:27.985Z,3.60
2018-07-15T02:55:57.400Z,4.07
2018-07-15T02:58:26.028Z,4.13
2018-07-15T03:00:54.259Z,4.07
2018-07-15T03:03:22.840Z,4.93
2018-07-15T03:05:51.369Z,4.27
2018-07-15T03:08:19.636Z,4.03
2018-07-15T03:10:48.218Z,3.53
2018-07-15T03:13:16.522Z,4.43
2018-07-15T03:15:45.036Z,3.73
2018-07-15T03:18:13.608Z,3.90
2018-07-15T03:20:42.246Z,4.07
2018-07-15T03:23:10.546Z,5.07
2018-07-15T03:25:39.065Z,4.33
2018-07-15T03:28:07.631Z,4.33
2018-07-15T03:30:36.184Z,4.17
2018-07-15T03:33:04.825Z,3.60
2018-07-15T03:35:33.386Z,3.80
2018-07-15T03:38:01.960Z,3.97
2018-07-15T03:40:30.500Z,3.80
2018-07-15T03:42:58.879Z,3.30
2018-07-15T03:45:28.740Z,3.47
2018-07-15T03:47:57.378Z,3.60
2018-07-15T03:50:25.671Z,4.37
2018-07-15T03:52:54.280Z,3.80
2018-07-15T03:55:22.888Z,3.97
2018-07-15T03:57:51.781Z,3.90
2018-07-15T04:00:20.657Z,3.83
2018-07-15T04:02:49.199Z,4.17
2018-07-15T04:05:17.812Z,4.10
2018-07-15T04:07:46.399Z,4.17
2018-07-15T04:10:14.980Z,3.50
2018-07-15T04:12:43.571Z,4.70
2018-07-15T04:15:12.119Z,4.00
2018-07-15T04:17:40.698Z,4.03
2018-07-15T04:20:09.348Z,3.80
2018-07-15T04:22:37.871Z,4.03
2018-07-15T04:25:06.533Z,3.87
2018-07-15T04:27:34.826Z,4.23
2018-07-15T04:30:03.090Z,4.27
2018-07-15T04:32:31.382Z,5.10
2018-07-15T04:34:59.948Z,4.80
2018-07-15T04:37:28.948Z,4.30
2018-07-15T04:39:58.795Z,4.50
2018-07-15T04:42:27.410Z,4.47
2018-07-15T04:44:56.029Z,4.70
2018-07-15T04:47:24.604Z,4.43
2018-07-15T04:49:53.196Z,4.50
2018-07-15T04:52:21.785Z,3.97
2018-07-15T04:54:50.318Z,4.80
2018-07-15T04:57:18.872Z,4.20
2018-07-15T04:59:47.436Z,4.23
2018-07-15T05:02:15.662Z,4.73
2018-07-15T05:04:44.247Z,3.80
2018-07-15T05:07:12.752Z,4.10
2018-07-15T05:09:41.017Z,4.17
2018-07-15T05:12:09.567Z,3.37
2018-07-15T05:14:38.079Z,3.70
2018-07-15T05:17:06.688Z,3.60
2018-07-15T05:19:34.911Z,3.43
2018-07-15T05:22:03.482Z,3.60
2018-07-15T05:24:31.984Z,4.30
2018-07-15T05:27:00.562Z,3.80
2018-07-15T05:29:29.917Z,3.40
2018-07-15T05:31:59.196Z,2.80
2018-07-15T05:34:28.471Z,3.40
2018-07-15T05:36:57.458Z,2.53
2018-07-15T05:39:26.028Z,2.83
2018-07-15T05:41:54.650Z,2.60
2018-07-15T05:44:23.275Z,2.37
2018-07-15T05:46:51.832Z,2.40
2018-07-15T05:49:20.136Z,2.47
2018-07-15T05:51:48.757Z,2.33
2018-07-15T05:54:17.541Z,2.23
2018-07-15T05:56:46.110Z,2.03
2018-07-15T05:59:14.727Z,1.83
2018-07-15T06:01:43.289Z,1.80
2018-07-15T06:04:11.863Z,1.80
2018-07-15T06:06:40.414Z,1.90
2018-07-15T06:09:08.990Z,1.63
2018-07-15T06:11:37.521Z,2.00
2018-07-15T06:14:06.187Z,1.50
2018-07-15T06:16:34.733Z,2.00
2018-07-15T06:19:03.008Z,1.70
2018-07-15T06:21:31.245Z,1.80
2018-07-15T06:24:01.002Z,1.77
2018-07-15T06:26:30.739Z,2.20
2018-07-15T06:29:00.228Z,1.67
2018-07-15T06:31:29.821Z,1.63
2018-07-15T06:33:58.770Z,1.60
2018-07-15T06:36:28.504Z,1.60
2018-07-15T06:38:57.702Z,1.57
2018-07-15T06:41:26.003Z,1.50
2018-07-15T06:43:54.588Z,1.53
2018-07-15T06:46:23.161Z,1.37
2018-07-15T06:48:51.458Z,1.43
2018-07-15T06:51:20.162Z,1.00
2018-07-15T06:53:52.265Z,0.90
2018-07-15T06:56:23.314Z,1.60
2018-07-15T06:58:55.324Z,1.43
2018-07-15T07:01:29.835Z,1.73
2018-07-15T07:04:03.446Z,1.53
2018-07-15T07:06:37.090Z,1.60
2018-07-15T07:09:09.786Z,1.40
2018-07-15T07:11:41.599Z,1.03
2018-07-15T07:14:15.648Z,1.20
2018-07-15T07:16:49.345Z,1.17
2018-07-15T07:19:20.645Z,1.07
2018-07-15T07:21:51.100Z,1.20
2018-07-15T07:24:24.430Z,1.50
2018-07-15T07:26:54.828Z,1.70
2018-07-15T07:29:25.788Z,1.80
2018-07-15T07:31:59.541Z,1.90
2018-07-15T07:34:31.935Z,1.50
2018-07-15T07:37:03.767Z,1.33
2018-07-15T07:39:38.115Z,2.27
2018-07-15T07:42:11.939Z,2.00
2018-07-15T07:44:45.419Z,1.80
2018-07-15T07:47:14.150Z,1.77
2018-07-15T07:49:42.423Z,1.60
2018-07-15T07:52:10.807Z,1.43
2018-07-15T07:54:39.127Z,1.50
2018-07-15T07:57:08.028Z,1.20
2018-07-15T07:59:36.608Z,1.70
2018-07-15T08:02:06.662Z,1.30
2018-07-15T08:04:34.977Z,1.47
2018-07-15T08:07:03.582Z,1.40
2018-07-15T08:09:32.343Z,1.30
2018-07-15T08:12:00.902Z,1.30
2018-07-15T08:14:29.302Z,1.13
2018-07-15T08:16:58.528Z,1.53
2018-07-15T08:19:27.101Z,1.43
2018-07-15T08:21:55.823Z,1.60
2018-07-15T08:24:24.535Z,1.70
2018-07-15T08:26:52.876Z,1.60
2018-07-15T08:29:21.389Z,1.20
2018-07-15T08:31:49.675Z,1.43
2018-07-15T08:34:18.452Z,1.60
2018-07-15T08:36:47.045Z,1.43
2018-07-15T08:39:15.699Z,1.80
2018-07-15T08:41:44.280Z,1.13
2018-07-15T08:44:12.865Z,1.30
2018-07-15T08:46:41.571Z,1.23
2018-07-15T08:49:09.804Z,1.47
2018-07-15T08:51:38.436Z,1.50
2018-07-15T08:54:06.720Z,1.33
2018-07-15T08:56:35.030Z,1.47
2018-07-15T08:59:03.845Z,1.00
2018-07-15T09:01:32.788Z,1.17
2018-07-15T09:04:01.495Z,1.20
2018-07-15T09:06:30.487Z,1.50
2018-07-15T09:08:59.943Z,1.10
2018-07-15T09:11:30.514Z,1.30
2018-07-15T09:14:00.014Z,1.40
2018-07-15T09:16:29.374Z,1.50
2018-07-15T09:18:58.422Z,1.30
2018-07-15T09:21:27.756Z,1.37
2018-07-15T09:23:56.477Z,1.00
2018-07-15T09:26:26.118Z,1.00
2018-07-15T09:28:54.769Z,1.03
2018-07-15T09:31:23.363Z,0.90
2018-07-15T09:33:52.149Z,0.80
2018-07-15T09:36:20.871Z,1.90
2018-07-15T09:38:49.587Z,1.07
2018-07-15T09:41:18.236Z,1.00
2018-07-15T09:43:46.963Z,1.10
2018-07-15T09:46:15.688Z,0.90
2018-07-15T09:48:45.234Z,1.37
2018-07-15T09:51:13.833Z,1.17
2018-07-15T09:53:42.526Z,1.20
2018-07-15T09:56:11.105Z,1.10
2018-07-15T09:58:39.752Z,1.13
2018-07-15T10:01:08.452Z,0.90
2018-07-15T10:03:37.064Z,1.00
2018-07-15T10:06:05.518Z,1.20
2018-07-15T10:08:34.255Z,1.17
2018-07-15T10:11:02.873Z,1.17
2018-07-15T10:13:31.589Z,1.10
2018-07-15T10:16:00.199Z,1.20
2018-07-15T10:18:29.295Z,1.10
2018-07-15T10:20:58.482Z,1.07
2018-07-15T10:23:27.950Z,1.03
2018-07-15T10:25:56.692Z,1.30
2018-07-15T10:28:25.983Z,0.97
2018-07-15T10:30:54.316Z,1.00
2018-07-15T10:33:22.937Z,1.10
2018-07-15T10:35:51.264Z,1.00
2018-07-15T10:38:19.793Z,1.20
2018-07-15T10:40:49.233Z,1.17
2018-07-15T10:43:17.841Z,1.03
2018-07-15T10:45:46.532Z,1.13
2018-07-15T10:48:15.097Z,1.13
2018-07-15T10:50:43.701Z,1.27
2018-07-15T10:53:12.368Z,1.37
2018-07-15T10:55:40.915Z,1.17
2018-07-15T10:58:09.481Z,1.20
2018-07-15T11:00:38.118Z,1.40
2018-07-15T11:03:06.654Z,1.23
2018-07-15T11:05:35.028Z,1.07
2018-07-15T11:08:03.706Z,1.17
2018-07-15T11:10:32.244Z,1.13
2018-07-15T11:13:00.841Z,1.30
2018-07-15T11:15:30.400Z,1.37
2018-07-15T11:17:59.962Z,1.10
2018-07-15T11:20:29.834Z,1.13
2018-07-15T11:22:59.048Z,1.13
2018-07-15T11:25:29.360Z,0.90
2018-07-15T11:27:59.659Z,0.90
2018-07-15T11:30:30.041Z,0.90
2018-07-15T11:32:59.540Z,0.80
2018-07-15T11:35:28.444Z,1.07
2018-07-15T11:37:57.430Z,1.27
2018-07-15T11:40:27.407Z,0.77
2018-07-15T11:42:56.055Z,1.17
2018-07-15T11:45:31.046Z,0.97
2018-07-15T11:48:00.199Z,1.03
2018-07-15T11:50:29.245Z,1.10
2018-07-15T11:52:58.827Z,1.17
2018-07-15T11:55:28.400Z,1.13
2018-07-15T11:57:57.460Z,1.27
2018-07-15T12:00:26.153Z,1.00
2018-07-15T12:02:54.953Z,1.20
2018-07-15T12:05:23.669Z,1.30
2018-07-15T12:07:52.443Z,1.10
2018-07-15T12:10:20.735Z,1.20
2018-07-15T12:12:49.403Z,1.30
2018-07-15T12:15:17.799Z,1.50
2018-07-15T12:17:46.230Z,1.10
2018-07-15T12:20:14.941Z,1.13
2018-07-15T12:22:43.661Z,1.27
2018-07-15T12:25:13.379Z,1.30
2018-07-15T12:27:42.289Z,1.00
2018-07-15T12:30:10.988Z,1.00
2018-07-15T12:32:39.608Z,1.13
2018-07-15T12:35:08.227Z,1.20
2018-07-15T12:37:36.952Z,1.30
2018-07-15T12:40:05.636Z,1.13
2018-07-15T12:42:34.252Z,1.10
2018-07-15T12:45:05.044Z,1.40
2018-07-15T12:47:33.683Z,1.30
2018-07-15T12:50:02.021Z,1.20
2018-07-15T12:52:30.631Z,1.33
2018-07-15T12:54:59.975Z,1.40
2018-07-15T12:57:29.301Z,1.60
2018-07-15T12:59:58.530Z,1.37
2018-07-15T13:02:27.412Z,1.10
2018-07-15T13:04:57.825Z,1.37
2018-07-15T13:07:26.559Z,1.30
2018-07-15T13:09:55.192Z,1.30
2018-07-15T13:12:23.814Z,1.33
2018-07-15T13:14:55.682Z,1.20
2018-07-15T13:17:24.409Z,1.20
2018-07-15T13:19:53.106Z,1.45
2018-07-15T13:22:21.773Z,1.43
2018-07-15T13:24:50.423Z,1.27
2018-07-15T13:27:18.999Z,1.57
2018-07-15T13:29:47.361Z,1.70
2018-07-15T13:32:15.948Z,1.20
2018-07-15T13:34:44.190Z,1.35
2018-07-15T13:37:12.745Z,1.25
2018-07-15T13:39:41.338Z,1.70
2018-07-15T13:42:09.977Z,1.50
2018-07-15T13:44:38.263Z,1.37
2018-07-15T13:47:06.874Z,1.80
2018-07-15T13:49:35.428Z,1.45
2018-07-15T13:52:04.030Z,1.20
2018-07-15T13:54:32.699Z,1.42
2018-07-15T13:57:01.280Z,1.35
2018-07-15T13:59:29.516Z,1.40
2018-07-15T14:01:58.533Z,1.40
2018-07-15T14:04:27.595Z,1.30
2018-07-15T14:06:56.180Z,1.55
2018-07-15T14:09:24.713Z,1.32
2018-07-15T14:11:52.995Z,1.20
2018-07-15T14:14:21.545Z,1.60
2018-07-15T14:16:50.129Z,1.22
2018-07-15T14:19:18.699Z,1.40
2018-07-15T14:21:47.256Z,1.40
2018-07-15T14:24:15.909Z,1.27
2018-07-15T14:26:44.464Z,1.47
2018-07-15T14:29:13.384Z,1.45
2018-07-15T14:31:42.076Z,1.40
2018-07-15T14:34:11.449Z,1.70
2018-07-15T14:36:39.739Z,1.55
2018-07-15T14:39:08.331Z,1.27
2018-07-15T14:41:36.901Z,1.30
2018-07-15T14:44:05.232Z,1.40
2018-07-15T14:46:33.813Z,1.62
2018-07-15T14:49:02.498Z,1.60
2018-07-15T14:51:31.054Z,1.55
2018-07-15T14:54:00.781Z,1.55
2018-07-15T14:56:30.318Z,1.90
2018-07-15T14:59:00.163Z,1.60
2018-07-15T15:01:29.785Z,1.47
2018-07-15T15:03:59.515Z,1.90
2018-07-15T15:06:28.520Z,1.87
2018-07-15T15:08:57.623Z,1.67
2018-07-15T15:11:26.199Z,1.77
2018-07-15T15:13:54.787Z,1.60
2018-07-15T15:16:23.371Z,1.62
2018-07-15T15:18:51.939Z,1.70
2018-07-15T15:21:20.540Z,1.35
2018-07-15T15:23:49.056Z,1.67
2018-07-15T15:26:17.652Z,1.25
2018-07-15T15:28:46.177Z,2.00
2018-07-15T15:31:14.774Z,1.60
2018-07-15T15:33:43.498Z,1.90
2018-07-15T15:36:12.037Z,1.25
2018-07-15T15:38:40.565Z,1.65
2018-07-15T15:41:09.118Z,1.83
2018-07-15T15:43:37.724Z,1.80
2018-07-15T15:46:06.039Z,1.80
2018-07-15T15:48:35.011Z,1.60
2018-07-15T15:51:03.759Z,2.00
2018-07-15T15:53:32.675Z,1.70
2018-07-15T15:56:00.937Z,1.83
2018-07-15T15:58:29.946Z,1.70
2018-07-15T16:00:58.567Z,1.87
2018-07-15T16:03:27.681Z,1.90
2018-07-15T16:05:56.253Z,2.03
2018-07-15T16:08:24.854Z,1.93
2018-07-15T16:10:53.410Z,2.00
2018-07-15T16:13:21.999Z,2.00
2018-07-15T16:15:50.597Z,2.13
2018-07-15T16:18:19.147Z,2.00
2018-07-15T16:20:47.707Z,1.80
2018-07-15T16:23:15.998Z,1.40
2018-07-15T16:25:44.622Z,1.80
2018-07-15T16:28:13.150Z,1.97
2018-07-15T16:30:41.423Z,2.27
2018-07-15T16:33:09.743Z,1.83
2018-07-15T16:35:38.290Z,1.77
2018-07-15T16:38:06.946Z,2.33
2018-07-15T16:40:35.464Z,1.77
2018-07-15T16:43:04.028Z,1.40
2018-07-15T16:45:32.303Z,1.40
2018-07-15T16:48:00.872Z,1.60
2018-07-15T16:50:30.449Z,1.67
2018-07-15T16:53:00.285Z,1.53
2018-07-15T16:55:29.750Z,1.43
2018-07-15T16:57:59.430Z,1.63
2018-07-15T17:00:28.825Z,1.70
2018-07-15T17:02:57.548Z,1.80
2018-07-15T17:05:26.116Z,1.83
2018-07-15T17:07:54.723Z,2.17
2018-07-15T17:10:23.300Z,1.60
2018-07-15T17:12:51.868Z,2.00
2018-07-15T17:15:20.523Z,1.43
2018-07-15T17:17:49.132Z,1.70
2018-07-15T17:20:17.812Z,1.70
2018-07-15T17:22:46.424Z,1.80
2018-07-15T17:25:15.176Z,1.43
2018-07-15T17:27:43.797Z,2.13
2018-07-15T17:30:12.409Z,2.13
2018-07-15T17:32:40.980Z,1.57
2018-07-15T17:35:09.544Z,1.80
2018-07-15T17:37:38.315Z,1.70
2018-07-15T17:40:06.935Z,1.57
2018-07-15T17:42:35.581Z,1.47
2018-07-15T17:45:04.501Z,1.40
2018-07-15T17:47:33.339Z,2.20
2018-07-15T17:50:01.582Z,1.60
2018-07-15T17:52:30.364Z,1.97
2018-07-15T17:54:59.602Z,1.80
2018-07-15T17:57:28.519Z,1.90
2018-07-15T17:59:57.651Z,1.77
2018-07-15T18:02:26.261Z,1.63
2018-07-15T18:04:54.629Z,1.63
2018-07-15T18:07:23.221Z,2.20
2018-07-15T18:09:51.567Z,2.13
2018-07-15T18:12:20.189Z,2.00
2018-07-15T18:14:48.445Z,2.33
2018-07-15T18:17:18.138Z,2.03
2018-07-15T18:19:46.748Z,2.20
2018-07-15T18:22:15.363Z,1.87
2018-07-15T18:24:43.747Z,2.10
2018-07-15T18:27:12.544Z,1.90
2018-07-15T18:29:41.148Z,2.50
2018-07-15T18:32:09.740Z,2.20
2018-07-15T18:34:38.308Z,1.97
2018-07-15T18:37:06.886Z,2.40
2018-07-15T18:39:35.592Z,2.90
2018-07-15T18:42:04.160Z,2.67
2018-07-15T18:44:32.800Z,2.57
2018-07-15T18:47:01.221Z,2.40
2018-07-15T18:49:29.838Z,2.73
2018-07-15T18:51:59.457Z,2.37
2018-07-15T18:54:28.723Z,3.07
2018-07-15T18:56:57.908Z,2.47
2018-07-15T18:59:26.536Z,2.60
2018-07-15T19:01:55.139Z,3.67
2018-07-15T19:04:23.764Z,3.60
2018-07-15T19:06:52.338Z,2.80
2018-07-15T19:09:20.928Z,2.63
2018-07-15T19:11:49.507Z,2.40
2018-07-15T19:14:18.205Z,2.70
2018-07-15T19:16:46.784Z,3.70
2018-07-15T19:19:15.364Z,2.37
2018-07-15T19:21:43.944Z,2.50
2018-07-15T19:24:12.611Z,2.57
2018-07-15T19:26:41.225Z,2.63
2018-07-15T19:29:09.808Z,2.03
2018-07-15T19:31:38.423Z,2.77
2018-07-15T19:34:07.056Z,2.60
2018-07-15T19:36:36.281Z,2.33
2018-07-15T19:39:05.482Z,2.23
2018-07-15T19:41:34.176Z,2.60
2018-07-15T19:44:02.840Z,2.30
2018-07-15T19:46:31.431Z,2.57
2018-07-15T19:49:01.310Z,2.80
2018-07-15T19:51:30.790Z,3.10
2018-07-15T19:53:59.127Z,2.77
2018-07-15T19:56:28.688Z,3.10
2018-07-15T19:58:57.962Z,3.13
2018-07-15T20:01:26.324Z,3.00
2018-07-15T20:03:54.935Z,3.00
2018-07-15T20:06:23.258Z,3.87
2018-07-15T20:08:51.830Z,3.03
2018-07-15T20:11:20.440Z,3.20
2018-07-15T20:13:49.011Z,3.70
2018-07-15T20:16:18.765Z,3.17
2018-07-15T20:18:47.026Z,3.17
2018-07-15T20:21:16.711Z,3.50
2018-07-15T20:23:45.299Z,4.10
2018-07-15T20:26:13.934Z,9.00
2018-07-15T20:28:42.177Z,6.03
2018-07-15T20:31:10.800Z,5.37
2018-07-15T20:33:39.358Z,6.63
2018-07-15T20:36:07.942Z,7.17
2018-07-15T20:38:36.559Z,5.93
2018-07-15T20:41:05.237Z,6.03
2018-07-15T20:43:33.861Z,5.47
2018-07-15T20:46:02.434Z,6.07
2018-07-15T20:48:32.084Z,6.83
2018-07-15T20:51:01.327Z,7.03
2018-07-15T20:53:30.496Z,7.00
2018-07-15T20:56:00.424Z,8.10
2018-07-15T20:58:30.433Z,7.13
2018-07-15T21:01:00.125Z,6.53
2018-07-15T21:03:29.596Z,6.40
2018-07-15T21:05:58.696Z,5.93
2018-07-15T21:08:28.561Z,5.90
2018-07-15T21:10:59.021Z,6.30
2018-07-15T21:13:28.853Z,5.80
2018-07-15T21:15:58.715Z,5.73
2018-07-15T21:18:28.914Z,5.57
2018-07-15T21:20:58.542Z,5.53
2018-07-15T21:23:28.550Z,5.73
2018-07-15T21:25:57.708Z,5.43
2018-07-15T21:28:26.362Z,5.80
2018-07-15T21:30:54.992Z,5.93
2018-07-15T21:33:23.606Z,5.93
2018-07-15T21:35:52.184Z,5.80
2018-07-15T21:38:20.558Z,5.73
2018-07-15T21:40:48.941Z,5.40
2018-07-15T21:43:17.230Z,5.27
2018-07-15T21:45:45.831Z,5.10
2018-07-15T21:48:14.454Z,5.57
2018-07-15T21:50:43.058Z,6.27
2018-07-15T21:53:11.621Z,5.80
2018-07-15T21:55:40.276Z,6.20
2018-07-15T21:58:08.924Z,6.03
2018-07-15T22:00:37.657Z,6.37
2018-07-15T22:03:06.349Z,6.27
2018-07-15T22:05:34.985Z,6.10
2018-07-15T22:08:14.899Z,6.07
2018-07-15T22:10:44.961Z,5.70
2018-07-15T22:13:13.652Z,7.17
2018-07-15T22:15:42.622Z,6.53
2018-07-15T22:18:11.309Z,6.33
2018-07-15T22:20:40.114Z,6.83
2018-07-15T22:23:08.942Z,7.37
2018-07-15T22:25:37.575Z,7.57
2018-07-15T22:28:06.292Z,7.43
2018-07-15T22:30:34.922Z,7.63
2018-07-15T22:33:03.370Z,7.03
2018-07-15T22:35:31.992Z,6.23
2018-07-15T22:38:00.247Z,6.67
2018-07-15T22:40:30.127Z,7.23
2018-07-15T22:42:59.463Z,7.10
2018-07-15T22:45:28.748Z,7.17
2018-07-15T22:47:57.975Z,6.90
2018-07-15T22:50:26.572Z,6.47
2018-07-15T22:52:54.837Z,6.83
2018-07-15T22:55:23.139Z,6.67
2018-07-15T22:57:51.699Z,8.00
2018-07-15T23:00:20.043Z,8.17
2018-07-15T23:02:48.649Z,7.87
2018-07-15T23:05:39.660Z,7.47
2018-07-15T23:08:08.621Z,7.27
2018-07-15T23:10:37.296Z,7.83
2018-07-15T23:13:07.621Z,7.57
2018-07-15T23:15:36.661Z,8.20
2018-07-15T23:18:05.003Z,7.87
2018-07-15T23:20:34.405Z,8.13
2018-07-15T23:23:03.949Z,7.83
2018-07-15T23:25:32.895Z,7.27
2018-07-15T23:28:02.263Z,8.23
2018-07-15T23:30:31.486Z,7.87
2018-07-15T23:33:01.431Z,8.47
2018-07-15T23:35:31.644Z,7.83
2018-07-15T23:38:00.896Z,8.50
2018-07-15T23:40:30.212Z,8.13
2018-07-15T23:43:00.212Z,7.63
2018-07-15T23:45:30.539Z,7.60
2018-07-15T23:48:00.256Z,7.53
2018-07-15T23:50:29.527Z,6.97
2018-07-15T23:52:58.523Z,6.80
2018-07-15T23:55:26.860Z,6.80
2018-07-15T23:57:56.138Z,7.00
